createdAt,value
2023-08-11T00:00:40.875Z,3.95
2023-08-11T00:03:10.962Z,3.70
2023-08-11T00:05:40.378Z,4.32
2023-08-11T00:08:09.521Z,3.90
2023-08-11T00:10:38.227Z,3.67
2023-08-11T00:13:07.846Z,3.80
2023-08-11T00:15:40.897Z,3.22
2023-08-11T00:18:12.299Z,3.88
2023-08-11T00:20:40.583Z,3.97
2023-08-11T00:23:08.825Z,4.45
2023-08-11T00:25:37.142Z,3.85
2023-08-11T00:28:07.587Z,3.75
2023-08-11T00:30:35.809Z,3.90
2023-08-11T00:33:07.295Z,3.70
2023-08-11T00:35:37.026Z,3.38
2023-08-11T00:38:05.982Z,3.67
2023-08-11T00:40:34.273Z,3.50
2023-08-11T00:43:02.688Z,3.20
2023-08-11T00:45:31.488Z,3.85
2023-08-11T00:48:00.433Z,3.53
2023-08-11T00:50:29.211Z,3.35
2023-08-11T00:53:02.269Z,4.00
2023-08-11T00:55:30.972Z,3.53
2023-08-11T00:57:59.657Z,3.40
2023-08-11T01:00:29.258Z,3.92
2023-08-11T01:02:58.725Z,3.55
2023-08-11T01:05:30.739Z,3.75
2023-08-11T01:08:11.735Z,3.55
2023-08-11T01:10:48.832Z,3.60
2023-08-11T01:13:20.752Z,3.70
2023-08-11T01:15:57.677Z,3.58
2023-08-11T01:18:26.771Z,3.78
2023-08-11T01:21:01.616Z,3.50
2023-08-11T01:23:31.667Z,3.65
2023-08-11T01:26:02.086Z,3.22
2023-08-11T01:28:30.639Z,4.07
2023-08-11T01:30:58.869Z,3.83
2023-08-11T01:33:27.168Z,4.30
2023-08-11T01:35:55.420Z,3.42
2023-08-11T01:38:23.723Z,3.45
2023-08-11T01:40:54.142Z,3.80
2023-08-11T01:43:24.604Z,4.03
2023-08-11T01:45:53.496Z,3.83
2023-08-11T01:48:23.715Z,3.70
2023-08-11T01:50:52.507Z,4.05
2023-08-11T01:53:20.875Z,3.45
2023-08-11T01:55:52.150Z,3.90
2023-08-11T01:58:21.950Z,4.30
2023-08-11T02:00:50.173Z,4.07
2023-08-11T02:03:19.661Z,3.78
2023-08-11T02:05:48.108Z,4.57
2023-08-11T02:08:18.997Z,4.00
2023-08-11T02:10:47.522Z,3.53
2023-08-11T02:13:15.786Z,3.75
2023-08-11T02:15:45.543Z,3.80
2023-08-11T02:18:13.872Z,4.07
2023-08-11T02:20:42.565Z,3.63
2023-08-11T02:23:10.831Z,4.13
2023-08-11T02:25:40.887Z,3.65
2023-08-11T02:28:09.296Z,3.70
2023-08-11T02:30:37.559Z,4.15
2023-08-11T02:33:07.712Z,3.97
2023-08-11T02:35:35.991Z,3.50
2023-08-11T02:38:04.525Z,3.83
2023-08-11T02:40:33.151Z,3.58
2023-08-11T02:43:03.280Z,3.85
2023-08-11T02:45:32.071Z,3.80
2023-08-11T02:48:00.294Z,3.78
2023-08-11T02:50:29.912Z,4.57
2023-08-11T02:52:58.080Z,4.30
2023-08-11T02:55:26.459Z,4.03
2023-08-11T02:57:54.815Z,4.05
2023-08-11T03:00:23.145Z,4.47
2023-08-11T03:02:51.465Z,4.03
2023-08-11T03:05:20.954Z,3.63
2023-08-11T03:07:54.702Z,4.63
2023-08-11T03:10:23.033Z,4.03
2023-08-11T03:12:52.084Z,4.07
2023-08-11T03:15:20.548Z,3.90
2023-08-11T03:17:49.150Z,3.85
2023-08-11T03:20:19.121Z,4.00
2023-08-11T03:22:48.611Z,3.53
2023-08-11T03:25:22.962Z,4.20
2023-08-11T03:27:51.957Z,3.80
2023-08-11T03:30:26.271Z,3.95
2023-08-11T03:32:56.950Z,3.65
2023-08-11T03:35:37.306Z,3.93
2023-08-11T03:38:06.497Z,3.87
2023-08-11T03:40:37.307Z,3.55
2023-08-11T03:43:05.976Z,4.28
2023-08-11T03:45:37.674Z,3.80
2023-08-11T03:48:11.420Z,4.22
2023-08-11T03:50:39.751Z,4.13
2023-08-11T03:53:09.194Z,4.20
2023-08-11T03:55:39.444Z,3.60
2023-08-11T03:58:08.857Z,3.42
2023-08-11T04:00:37.928Z,4.33
2023-08-11T04:03:13.751Z,3.90
2023-08-11T04:05:42.053Z,3.57
2023-08-11T04:08:10.538Z,4.60
2023-08-11T04:10:40.266Z,3.73
2023-08-11T04:13:08.964Z,3.93
2023-08-11T04:15:38.117Z,4.03
2023-08-11T04:18:06.481Z,4.10
2023-08-11T04:20:34.855Z,4.10
2023-08-11T04:23:05.612Z,4.10
2023-08-11T04:25:35.704Z,3.90
2023-08-11T04:28:06.567Z,4.05
2023-08-11T04:30:34.853Z,3.83
2023-08-11T04:33:03.482Z,3.57
2023-08-11T04:35:35.432Z,3.67
2023-08-11T04:38:05.427Z,3.58
2023-08-11T04:40:36.608Z,3.75
2023-08-11T04:43:06.343Z,3.70
2023-08-11T04:45:39.198Z,3.78
2023-08-11T04:48:08.340Z,3.58
2023-08-11T04:50:38.939Z,3.80
2023-08-11T04:53:07.238Z,3.65
2023-08-11T04:55:35.959Z,3.80
2023-08-11T04:58:06.338Z,4.37
2023-08-11T05:00:35.307Z,3.88
2023-08-11T05:03:03.875Z,3.97
2023-08-11T05:05:32.266Z,3.70
2023-08-11T05:08:01.853Z,4.53
2023-08-11T05:10:30.294Z,3.60
2023-08-11T05:13:00.071Z,3.88
2023-08-11T05:15:29.843Z,3.83
2023-08-11T05:17:58.186Z,3.42
2023-08-11T05:20:26.908Z,4.10
2023-08-11T05:22:55.596Z,4.45
2023-08-11T05:25:24.166Z,4.60
2023-08-11T05:27:52.485Z,3.80
2023-08-11T05:30:23.500Z,3.78
2023-08-11T05:32:53.084Z,3.70
2023-08-11T05:35:21.782Z,4.15
2023-08-11T05:37:50.021Z,4.22
2023-08-11T05:40:18.743Z,4.18
2023-08-11T05:42:46.967Z,4.40
2023-08-11T05:45:17.785Z,3.65
2023-08-11T05:47:46.666Z,4.20
2023-08-11T05:50:16.349Z,3.30
2023-08-11T05:52:44.612Z,4.18
2023-08-11T05:55:12.875Z,3.17
2023-08-11T05:57:41.183Z,3.40
2023-08-11T06:00:11.097Z,3.67
2023-08-11T06:02:43.789Z,3.25
2023-08-11T06:05:13.822Z,3.22
2023-08-11T06:07:52.358Z,3.35
2023-08-11T06:10:28.868Z,3.65
2023-08-11T06:12:57.394Z,3.20
2023-08-11T06:15:26.041Z,2.83
2023-08-11T06:17:54.365Z,2.85
2023-08-11T06:20:34.493Z,2.85
2023-08-11T06:23:10.662Z,3.25
2023-08-11T06:25:39.016Z,2.97
2023-08-11T06:28:08.497Z,2.60
2023-08-11T06:30:36.794Z,2.80
2023-08-11T06:33:05.984Z,2.67
2023-08-11T06:35:35.686Z,2.35
2023-08-11T06:38:04.169Z,2.80
2023-08-11T06:40:33.767Z,3.20
2023-08-11T06:43:02.008Z,3.15
2023-08-11T06:45:30.389Z,2.47
2023-08-11T06:47:58.778Z,2.65
2023-08-11T06:50:27.489Z,2.80
2023-08-11T06:52:57.780Z,2.92
2023-08-11T06:55:27.693Z,2.53
2023-08-11T06:57:57.419Z,2.58
2023-08-11T07:00:25.843Z,3.28
2023-08-11T07:02:54.299Z,2.50
2023-08-11T07:05:22.724Z,2.65
2023-08-11T07:07:51.061Z,2.80
2023-08-11T07:10:19.541Z,2.75
2023-08-11T07:12:47.849Z,2.15
2023-08-11T07:15:17.745Z,2.45
2023-08-11T07:17:46.212Z,2.38
2023-08-11T07:20:14.686Z,2.30
2023-08-11T07:22:43.067Z,2.22
2023-08-11T07:25:11.538Z,2.50
2023-08-11T07:27:39.849Z,2.50
2023-08-11T07:30:10.876Z,2.08
2023-08-11T07:32:40.709Z,2.00
2023-08-11T07:35:09.645Z,2.45
2023-08-11T07:37:37.985Z,2.63
2023-08-11T07:40:09.018Z,2.70
2023-08-11T07:42:37.289Z,2.40
2023-08-11T07:45:06.992Z,2.33
2023-08-11T07:47:35.301Z,2.05
2023-08-11T07:50:05.734Z,1.92
2023-08-11T07:52:34.064Z,2.28
2023-08-11T07:55:02.533Z,1.80
2023-08-11T07:57:30.854Z,2.10
2023-08-11T07:59:59.596Z,2.03
2023-08-11T08:02:28.062Z,2.10
2023-08-11T08:05:09.524Z,1.95
2023-08-11T08:07:42.831Z,2.20
2023-08-11T08:10:14.956Z,2.20
2023-08-11T08:12:47.090Z,2.35
2023-08-11T08:15:18.041Z,2.40
2023-08-11T08:17:46.704Z,2.30
2023-08-11T08:20:16.862Z,2.63
2023-08-11T08:22:47.500Z,2.25
2023-08-11T08:25:16.225Z,2.20
2023-08-11T08:27:46.038Z,1.67
2023-08-11T08:30:14.786Z,2.28
2023-08-11T08:32:44.441Z,2.15
2023-08-11T08:35:13.379Z,2.15
2023-08-11T08:37:42.009Z,2.17
2023-08-11T08:40:13.676Z,1.92
2023-08-11T08:42:42.730Z,2.35
2023-08-11T08:45:12.005Z,1.95
2023-08-11T08:47:44.363Z,2.42
2023-08-11T08:50:13.713Z,2.85
2023-08-11T08:52:42.513Z,2.28
2023-08-11T08:55:12.830Z,1.88
2023-08-11T08:57:42.670Z,2.13
2023-08-11T09:00:12.551Z,2.00
2023-08-11T09:02:44.403Z,2.08
2023-08-11T09:05:13.849Z,2.10
2023-08-11T09:07:42.128Z,2.25
2023-08-11T09:10:12.556Z,2.08
2023-08-11T09:12:40.816Z,2.08
2023-08-11T09:15:13.177Z,2.00
2023-08-11T09:17:42.376Z,1.88
2023-08-11T09:20:14.618Z,1.30
2023-08-11T09:22:43.211Z,2.00
2023-08-11T09:25:13.487Z,2.10
2023-08-11T09:27:42.094Z,2.10
2023-08-11T09:30:12.519Z,1.98
2023-08-11T09:32:41.111Z,2.00
2023-08-11T09:35:11.003Z,1.70
2023-08-11T09:37:40.078Z,2.00
2023-08-11T09:40:12.873Z,1.83
2023-08-11T09:42:43.186Z,2.20
2023-08-11T09:45:12.626Z,2.20
2023-08-11T09:47:41.112Z,1.92
2023-08-11T09:50:10.227Z,1.88
2023-08-11T09:52:40.496Z,2.08
2023-08-11T09:55:13.771Z,2.00
2023-08-11T09:57:45.274Z,1.92
2023-08-11T10:00:15.450Z,2.00
2023-08-11T10:02:54.706Z,1.85
2023-08-11T10:05:24.557Z,1.95
2023-08-11T10:07:56.539Z,2.05
2023-08-11T10:10:27.974Z,1.60
2023-08-11T10:13:04.959Z,1.67
2023-08-11T10:15:35.694Z,1.90
2023-08-11T10:18:04.977Z,1.88
2023-08-11T10:20:33.618Z,1.98
2023-08-11T10:23:04.620Z,1.80
2023-08-11T10:25:35.218Z,1.83
2023-08-11T10:28:08.265Z,1.55
2023-08-11T10:30:38.252Z,1.92
2023-08-11T10:33:10.148Z,1.63
2023-08-11T10:35:52.390Z,1.70
2023-08-11T10:38:29.341Z,1.83
2023-08-11T10:41:07.066Z,1.60
2023-08-11T10:43:38.966Z,2.00
2023-08-11T10:46:24.588Z,1.60
2023-08-11T10:48:54.752Z,2.03
2023-08-11T10:51:32.364Z,2.35
2023-08-11T10:54:10.696Z,1.92
2023-08-11T10:56:42.635Z,1.90
2023-08-11T10:59:16.768Z,1.90
2023-08-11T11:01:47.740Z,1.90
2023-08-11T11:04:18.050Z,1.80
2023-08-11T11:06:48.282Z,1.60
2023-08-11T11:09:19.168Z,1.73
2023-08-11T11:11:52.340Z,2.10
2023-08-11T11:14:21.222Z,1.83
2023-08-11T11:16:49.832Z,1.70
2023-08-11T11:19:18.190Z,1.90
2023-08-11T11:21:48.844Z,2.00
2023-08-11T11:24:18.156Z,1.80
2023-08-11T11:26:46.599Z,1.73
2023-08-11T11:29:16.918Z,1.88
2023-08-11T11:31:46.742Z,1.50
2023-08-11T11:34:15.065Z,1.67
2023-08-11T11:36:43.696Z,1.85
2023-08-11T11:39:12.751Z,1.52
2023-08-11T11:41:41.074Z,1.40
2023-08-11T11:44:09.489Z,1.80
2023-08-11T11:46:39.546Z,2.00
2023-08-11T11:49:23.556Z,1.67
2023-08-11T11:51:57.216Z,2.00
2023-08-11T11:54:25.605Z,1.70
2023-08-11T11:57:03.396Z,1.90
2023-08-11T11:59:33.478Z,1.75
2023-08-11T12:02:05.019Z,1.50
2023-08-11T12:04:34.059Z,1.50
2023-08-11T12:07:02.893Z,1.67
2023-08-11T12:09:31.274Z,1.63
2023-08-11T12:11:59.510Z,1.73
2023-08-11T12:14:29.039Z,1.52
2023-08-11T12:16:59.212Z,1.60
2023-08-11T12:19:31.078Z,1.70
2023-08-11T12:21:59.345Z,1.85
2023-08-11T12:24:27.625Z,1.73
2023-08-11T12:26:56.118Z,2.38
2023-08-11T12:29:25.055Z,4.03
2023-08-11T12:31:53.273Z,1.77
2023-08-11T12:34:21.548Z,1.85
2023-08-11T12:36:51.800Z,1.60
2023-08-11T12:39:20.086Z,1.52
2023-08-11T12:41:48.996Z,1.65
2023-08-11T12:44:17.504Z,1.85
2023-08-11T12:46:45.861Z,2.00
2023-08-11T12:49:14.479Z,1.50
2023-08-11T12:51:43.056Z,1.65
2023-08-11T12:54:12.730Z,1.80
2023-08-11T12:56:41.107Z,1.63
2023-08-11T12:59:09.388Z,1.40
2023-08-11T13:01:37.779Z,1.70
2023-08-11T13:04:08.080Z,1.70
2023-08-11T13:06:36.385Z,1.58
2023-08-11T13:09:08.548Z,1.58
2023-08-11T13:11:38.180Z,1.55
2023-08-11T13:14:06.927Z,1.27
2023-08-11T13:16:37.579Z,1.50
2023-08-11T13:19:06.462Z,1.50
2023-08-11T13:21:35.231Z,1.58
2023-08-11T13:24:03.964Z,1.10
2023-08-11T13:26:32.618Z,1.60
2023-08-11T13:29:02.205Z,1.27
2023-08-11T13:31:30.564Z,1.50
2023-08-11T13:33:58.952Z,1.50
2023-08-11T13:36:27.724Z,1.70
2023-08-11T13:38:55.962Z,1.50
2023-08-11T13:41:24.513Z,1.48
2023-08-11T13:43:52.758Z,1.88
2023-08-11T13:46:25.730Z,1.48
2023-08-11T13:48:53.974Z,1.38
2023-08-11T13:51:22.283Z,1.40
2023-08-11T13:53:50.985Z,1.45
2023-08-11T13:56:19.249Z,1.30
2023-08-11T13:58:47.517Z,1.60
2023-08-11T14:01:16.284Z,1.38
2023-08-11T14:03:45.879Z,1.30
2023-08-11T14:06:14.139Z,1.23
2023-08-11T14:08:44.186Z,1.40
2023-08-11T14:11:14.267Z,1.35
2023-08-11T14:13:42.944Z,1.33
2023-08-11T14:16:11.201Z,1.50
2023-08-11T14:18:44.883Z,1.50
2023-08-11T14:21:17.696Z,1.70
2023-08-11T14:23:46.516Z,1.30
2023-08-11T14:26:15.013Z,1.70
2023-08-11T14:28:43.222Z,1.75
2023-08-11T14:31:11.837Z,1.45
2023-08-11T14:33:42.265Z,1.60
2023-08-11T14:36:13.204Z,1.27
2023-08-11T14:38:43.173Z,1.27
2023-08-11T14:41:11.531Z,1.50
2023-08-11T14:43:39.839Z,1.35
2023-08-11T14:46:08.221Z,1.63
2023-08-11T14:48:36.487Z,1.70
2023-08-11T14:51:06.585Z,1.55
2023-08-11T14:53:35.000Z,2.03
2023-08-11T14:56:05.257Z,1.38
2023-08-11T14:58:36.588Z,1.30
2023-08-11T15:01:05.445Z,1.52
2023-08-11T15:03:34.003Z,1.50
2023-08-11T15:06:06.748Z,1.63
2023-08-11T15:08:35.455Z,1.60
2023-08-11T15:11:05.532Z,1.40
2023-08-11T15:13:33.824Z,1.20
2023-08-11T15:16:02.319Z,1.30
2023-08-11T15:18:31.536Z,1.48
2023-08-11T15:21:00.806Z,1.20
2023-08-11T15:23:30.423Z,1.65
2023-08-11T15:25:59.182Z,1.67
2023-08-11T15:28:29.703Z,1.40
2023-08-11T15:30:58.126Z,1.55
2023-08-11T15:33:26.772Z,1.20
2023-08-11T15:35:55.251Z,1.17
2023-08-11T15:38:23.588Z,1.33
2023-08-11T15:40:52.076Z,1.67
2023-08-11T15:43:20.349Z,1.48
2023-08-11T15:45:49.903Z,1.20
2023-08-11T15:48:18.169Z,1.60
2023-08-11T15:50:46.439Z,1.40
2023-08-11T15:53:15.114Z,1.48
2023-08-11T15:55:43.410Z,1.73
2023-08-11T15:58:13.234Z,1.38
2023-08-11T16:00:41.502Z,1.30
2023-08-11T16:03:11.149Z,1.48
2023-08-11T16:05:39.583Z,1.50
2023-08-11T16:08:08.064Z,1.40
2023-08-11T16:10:39.122Z,1.35
2023-08-11T16:13:10.380Z,1.20
2023-08-11T16:15:39.375Z,1.35
2023-08-11T16:18:10.915Z,1.40
2023-08-11T16:20:39.385Z,1.88
2023-08-11T16:23:07.725Z,1.30
2023-08-11T16:25:36.032Z,1.55
2023-08-11T16:28:04.906Z,1.40
2023-08-11T16:30:33.513Z,1.55
2023-08-11T16:33:02.029Z,1.60
2023-08-11T16:35:31.885Z,1.25
2023-08-11T16:38:00.190Z,1.50
2023-08-11T16:40:30.900Z,1.25
2023-08-11T16:42:59.381Z,1.30
2023-08-11T16:45:27.795Z,1.58
2023-08-11T16:47:56.122Z,1.10
2023-08-11T16:50:24.834Z,1.30
2023-08-11T16:52:54.524Z,1.73
2023-08-11T16:55:23.911Z,1.50
2023-08-11T16:57:52.324Z,2.03
2023-08-11T17:00:20.888Z,2.05
2023-08-11T17:02:50.260Z,1.60
2023-08-11T17:05:18.615Z,2.05
2023-08-11T17:07:46.812Z,2.08
2023-08-11T17:10:16.801Z,1.75
2023-08-11T17:12:45.120Z,2.78
2023-08-11T17:15:15.938Z,2.08
2023-08-11T17:17:44.186Z,2.30
2023-08-11T17:20:13.368Z,1.90
2023-08-11T17:22:41.626Z,2.28
2023-08-11T17:25:10.718Z,2.80
2023-08-11T17:27:40.388Z,2.33
2023-08-11T17:30:09.929Z,2.33
2023-08-11T17:32:38.326Z,2.50
2023-08-11T17:35:08.696Z,2.88
2023-08-11T17:37:37.292Z,3.90
2023-08-11T17:40:07.853Z,3.08
2023-08-11T17:42:36.198Z,2.72
2023-08-11T17:45:07.380Z,3.35
2023-08-11T17:47:35.705Z,3.08
2023-08-11T17:50:05.340Z,2.58
2023-08-11T17:52:34.804Z,1.80
2023-08-11T17:55:03.173Z,1.90
2023-08-11T17:57:32.064Z,3.63
2023-08-11T18:00:02.128Z,2.97
2023-08-11T18:02:45.054Z,3.40
2023-08-11T18:05:13.976Z,2.85
2023-08-11T18:07:42.319Z,2.47
2023-08-11T18:10:11.830Z,2.00
2023-08-11T18:12:40.146Z,2.13
2023-08-11T18:15:10.070Z,2.05
2023-08-11T18:17:39.033Z,1.95
2023-08-11T18:20:10.601Z,2.03
2023-08-11T18:22:39.028Z,2.08
2023-08-11T18:25:09.459Z,2.03
2023-08-11T18:27:38.237Z,2.08
2023-08-11T18:30:11.767Z,2.00
2023-08-11T18:32:40.749Z,2.33
2023-08-11T18:35:11.813Z,2.10
2023-08-11T18:37:40.420Z,1.95
2023-08-11T18:40:11.287Z,2.05
2023-08-11T18:42:40.036Z,2.30
2023-08-11T18:45:10.090Z,2.42
2023-08-11T18:47:38.654Z,2.08
2023-08-11T18:50:08.665Z,2.50
2023-08-11T18:52:38.380Z,2.03
2023-08-11T18:55:07.983Z,2.10
2023-08-11T18:57:36.256Z,2.22
2023-08-11T19:00:06.018Z,2.15
2023-08-11T19:02:34.628Z,2.70
2023-08-11T19:05:04.163Z,2.13
2023-08-11T19:07:32.572Z,1.98
2023-08-11T19:10:02.298Z,2.17
2023-08-11T19:12:30.692Z,2.50
2023-08-11T19:14:59.109Z,1.90
2023-08-11T19:17:27.540Z,2.25
2023-08-11T19:19:55.963Z,2.13
2023-08-11T19:22:24.339Z,2.10
2023-08-11T19:24:52.797Z,2.40
2023-08-11T19:27:22.404Z,2.45
2023-08-11T19:29:50.704Z,1.77
2023-08-11T19:32:18.916Z,1.90
2023-08-11T19:34:47.182Z,2.05
2023-08-11T19:37:15.520Z,2.42
2023-08-11T19:39:43.884Z,2.80
2023-08-11T19:42:12.798Z,2.85
2023-08-11T19:44:44.002Z,2.75
2023-08-11T19:47:13.630Z,2.17
2023-08-11T19:49:41.835Z,2.45
2023-08-11T19:52:13.949Z,2.88
2023-08-11T19:54:42.496Z,2.90
2023-08-11T19:57:11.259Z,3.20
2023-08-11T19:59:39.949Z,3.80
2023-08-11T20:02:10.029Z,3.40
2023-08-11T20:04:38.529Z,2.90
2023-08-11T20:07:07.083Z,2.80
2023-08-11T20:09:36.596Z,3.30
2023-08-11T20:12:06.061Z,3.08
2023-08-11T20:14:34.302Z,3.20
2023-08-11T20:17:04.720Z,3.40
2023-08-11T20:19:34.468Z,3.30
2023-08-11T20:22:03.037Z,3.08
2023-08-11T20:24:31.680Z,3.83
2023-08-11T20:26:59.953Z,3.13
2023-08-11T20:29:28.283Z,2.92
2023-08-11T20:31:57.673Z,2.85
2023-08-11T20:34:27.593Z,3.17
2023-08-11T20:36:57.642Z,3.35
2023-08-11T20:39:41.178Z,3.05
2023-08-11T20:42:09.462Z,3.20
2023-08-11T20:44:37.682Z,3.38
2023-08-11T20:47:06.362Z,3.42
2023-08-11T20:49:34.646Z,3.47
2023-08-11T20:52:04.491Z,3.30
2023-08-11T20:54:32.739Z,3.10
2023-08-11T20:57:01.586Z,2.83
2023-08-11T20:59:31.389Z,3.80
2023-08-11T21:01:59.811Z,3.55
2023-08-11T21:04:28.167Z,3.20
2023-08-11T21:06:56.710Z,2.92
2023-08-11T21:09:26.860Z,3.50
2023-08-11T21:11:58.900Z,3.53
2023-08-11T21:14:27.288Z,3.65
2023-08-11T21:16:55.939Z,2.83
2023-08-11T21:19:24.451Z,3.20
2023-08-11T21:21:52.701Z,3.10
2023-08-11T21:24:21.020Z,3.95
2023-08-11T21:26:51.018Z,3.90
2023-08-11T21:29:19.575Z,3.38
2023-08-11T21:31:47.856Z,3.47
2023-08-11T21:34:16.715Z,3.63
2023-08-11T21:36:45.169Z,3.20
2023-08-11T21:39:13.525Z,3.47
2023-08-11T21:41:41.813Z,3.22
2023-08-11T21:44:11.706Z,3.78
2023-08-11T21:46:39.967Z,3.30
2023-08-11T21:49:08.271Z,3.00
2023-08-11T21:51:37.271Z,3.13
2023-08-11T21:54:07.866Z,3.28
2023-08-11T21:56:36.901Z,3.30
2023-08-11T21:59:05.499Z,3.10
2023-08-11T22:01:35.269Z,2.88
2023-08-11T22:04:03.581Z,3.08
2023-08-11T22:06:31.989Z,3.15
2023-08-11T22:09:00.258Z,3.08
2023-08-11T22:11:36.477Z,3.30
2023-08-11T22:14:06.341Z,3.05
2023-08-11T22:16:36.210Z,3.08
2023-08-11T22:19:05.596Z,3.55
2023-08-11T22:21:35.494Z,3.05
2023-08-11T22:24:04.008Z,3.42
2023-08-11T22:26:32.635Z,3.22
2023-08-11T22:29:00.912Z,3.75
2023-08-11T22:31:29.281Z,3.65
2023-08-11T22:33:58.890Z,3.50
2023-08-11T22:36:27.196Z,3.20
2023-08-11T22:38:55.514Z,3.95
2023-08-11T22:41:24.388Z,3.50
2023-08-11T22:43:52.992Z,3.63
2023-08-11T22:46:21.519Z,3.58
2023-08-11T22:48:50.101Z,3.70
2023-08-11T22:51:19.702Z,3.83
2023-08-11T22:53:47.988Z,3.95
2023-08-11T22:56:16.284Z,3.83
2023-08-11T22:58:44.602Z,3.60
2023-08-11T23:01:14.852Z,3.97
2023-08-11T23:03:43.167Z,3.72
2023-08-11T23:06:11.695Z,3.90
2023-08-11T23:08:41.330Z,4.45
2023-08-11T23:11:09.652Z,4.18
2023-08-11T23:13:37.912Z,4.03
2023-08-11T23:16:06.444Z,4.20
2023-08-11T23:18:34.789Z,4.13
2023-08-11T23:21:03.109Z,4.03
2023-08-11T23:23:31.363Z,3.75
2023-08-11T23:26:00.936Z,3.53
2023-08-11T23:28:29.326Z,3.67
2023-08-11T23:30:57.640Z,3.92
2023-08-11T23:33:26.211Z,4.60
2023-08-11T23:35:55.516Z,4.03
2023-08-11T23:38:24.083Z,4.75
2023-08-11T23:40:54.387Z,3.78
2023-08-11T23:43:24.365Z,3.83
2023-08-11T23:45:52.718Z,3.67
2023-08-11T23:48:21.156Z,3.95
2023-08-11T23:50:49.802Z,4.13
2023-08-11T23:53:18.061Z,3.55
2023-08-11T23:55:46.413Z,3.78
2023-08-11T23:58:14.688Z,3.90
